Terminal Aerodrome Forecast
Issued by NWS Wilmington, OH

Current Version | Previous Version | Graphics & Text | Print | Product List | Glossary On
Versions: 1 2 3 4 5 6 7 8 9 10 11 12 13 14 15 16 17 18 19 20 21 22 23 24 25 26 27 28 29 30 31 32
000
FTUS41 KILN 280900 AAC
TAFILN
TAF AMD
KILN 280900Z 2809/2906 09004KT 3SM BR OVC004
     FM281400 10006KT 4SM BR OVC007
     FM281600 VRB04KT P6SM OVC012
     FM281800 26006KT P6SM VCTS BKN040CB
     FM282200 30007KT P6SM SCT050
     FM290400 36004KT P6SM OVC007=

USA.gov is the U.S. government's official web portal to all federal, state and local government web resources and services.